Time;durP1;ratioP1;P1;durP2;ratioP2;P2;SDS_P1;SDS_P2;PMS_P1;PMS_P2;Temp;Humidity;BMP_temperature;BMP_pressure;BME280_temperature;BME280_humidity;BME280_pressure;Samples;Min_cycle;Max_cycle;Signal;HPM_P1;HPM_P2
2023/01/17 00:00:26;;;;;;;;;10.67;10.00;;;;;;;;5098575;27;46186;-70
2023/01/17 00:02:51;;;;;;;;;11.67;10.00;;;;;;;;5098831;27;45347;-69
2023/01/17 00:10:44;;;;;;;;;11.33;10.33;;;;;;;;5077594;28;45525;-70
2023/01/17 00:13:09;;;;;;;;;10.00;7.00;;;;;;;;5078148;28;45442;-70
2023/01/17 00:15:36;;;;;;;;;11.00;9.00;;;;;;;;5093529;27;45528;-70
2023/01/17 00:18:01;;;;;;;;;8.67;7.00;;;;;;;;5098718;27;45395;-70
2023/01/17 00:26:13;;;;;;;;;10.33;8.67;;;;;;;;5093095;27;45524;-70
2023/01/17 01:35:15;;;;;;;;;10.00;10.00;;;;;;;;5097357;27;45376;-69
2023/01/17 01:37:41;;;;;;;;;11.33;10.00;;;;;;;;5097273;27;45253;-69
2023/01/17 01:40:06;;;;;;;;;15.67;12.67;;;;;;;;5098005;27;45357;-69
2023/01/17 01:42:31;;;;;;;;;15.00;11.33;;;;;;;;5097387;27;45510;-69
2023/01/17 01:44:57;;;;;;;;;11.33;10.00;;;;;;;;5097309;27;46447;-69
2023/01/17 01:47:31;;;;;;;;;11.33;11.33;;;;;;;;5095911;27;46057;-70
2023/01/17 01:49:59;;;;;;;;;20.67;11.33;;;;;;;;5097242;27;45444;-69
2023/01/17 01:52:26;;;;;;;;;16.00;14.67;;;;;;;;5097387;27;45286;-69
2023/01/17 01:54:54;;;;;;;;;15.33;11.67;;;;;;;;5096934;27;46436;-69
2023/01/17 01:57:21;;;;;;;;;21.00;15.67;;;;;;;;5098391;27;45370;-69
2023/01/17 01:59:57;;;;;;;;;15.67;13.33;;;;;;;;5100895;27;45284;-69
2023/01/17 02:02:23;;;;;;;;;14.00;10.33;;;;;;;;5091540;27;45452;-69
2023/01/17 02:04:48;;;;;;;;;16.67;14.00;;;;;;;;5079822;28;45421;-69
2023/01/17 02:07:18;;;;;;;;;16.67;14.33;;;;;;;;5080197;28;45301;-69
2023/01/17 02:09:43;;;;;;;;;17.33;13.33;;;;;;;;5080066;28;45249;-69
2023/01/17 02:12:09;;;;;;;;;14.00;11.00;;;;;;;;5081668;27;46095;-69
2023/01/17 02:14:34;;;;;;;;;17.67;14.33;;;;;;;;5100178;27;46110;-69
2023/01/17 02:17:11;;;;;;;;;10.67;8.67;;;;;;;;5088565;27;45418;-69
2023/01/17 02:19:39;;;;;;;;;17.00;11.67;;;;;;;;5099395;27;45474;-69
2023/01/17 02:22:16;;;;;;;;;14.67;11.00;;;;;;;;5099076;27;45315;-69
2023/01/17 02:24:44;;;;;;;;;14.00;11.50;;;;;;;;5089159;27;45806;-69
2023/01/17 02:27:16;;;;;;;;;16.67;11.00;;;;;;;;5097843;27;45459;-69
2023/01/17 02:29:59;;;;;;;;;1.00;1.00;;;;;;;;5094171;27;45521;-69
2023/01/17 02:32:27;;;;;;;;;13.33;11.00;;;;;;;;5097480;27;45572;-69
2023/01/17 02:34:57;;;;;;;;;10.00;9.00;;;;;;;;5099874;27;45291;-69
2023/01/17 02:37:29;;;;;;;;;11.00;10.67;;;;;;;;5099372;27;45339;-69
2023/01/17 02:39:54;;;;;;;;;15.00;10.67;;;;;;;;5100133;27;45360;-69
2023/01/17 02:42:25;;;;;;;;;13.67;10.00;;;;;;;;5098759;27;45492;-69
2023/01/17 02:44:50;;;;;;;;;11.33;11.00;;;;;;;;5098782;27;46707;-69
2023/01/17 02:47:26;;;;;;;;;18.67;13.33;;;;;;;;5084357;27;45481;-69
2023/01/17 02:49:52;;;;;;;;;11.67;11.67;;;;;;;;5098829;27;45529;-69
2023/01/17 02:52:49;;;;;;;;;12.33;10.00;;;;;;;;5099138;27;45420;-69
2023/01/17 02:55:35;;;;;;;;;11.67;9.67;;;;;;;;5054069;28;46478;-69
2023/01/17 02:58:26;;;;;;;;;14.00;13.67;;;;;;;;5044391;28;45476;-69
2023/01/17 03:00:51;;;;;;;;;13.67;11.67;;;;;;;;5037563;28;45544;-69
2023/01/17 03:03:29;;;;;;;;;13.67;11.00;;;;;;;;5052183;28;45548;-69
2023/01/17 03:05:58;;;;;;;;;14.00;11.00;;;;;;;;5056082;28;46661;-69
2023/01/17 03:08:24;;;;;;;;;16.33;11.00;;;;;;;;5055936;28;45448;-69
2023/01/17 03:10:49;;;;;;;;;14.00;11.33;;;;;;;;5055360;28;45599;-69
2023/01/17 03:13:14;;;;;;;;;12.67;10.67;;;;;;;;5055784;28;45566;-69
2023/01/17 03:15:40;;;;;;;;;17.67;13.67;;;;;;;;5055022;28;46553;-69
2023/01/17 03:18:09;;;;;;;;;19.67;14.00;;;;;;;;5053627;28;45265;-69
2023/01/17 03:20:34;;;;;;;;;18.33;14.00;;;;;;;;5047479;28;45420;-69
2023/01/17 03:22:59;;;;;;;;;17.00;15.00;;;;;;;;5054813;28;45443;-69
2023/01/17 03:25:24;;;;;;;;;15.00;11.67;;;;;;;;5056323;28;46621;-69
2023/01/17 03:27:50;;;;;;;;;14.33;12.00;;;;;;;;5043293;28;45440;-69
2023/01/17 03:30:16;;;;;;;;;17.00;13.00;;;;;;;;5059369;27;45533;-69
2023/01/17 03:32:41;;;;;;;;;17.33;14.00;;;;;;;;5098542;27;45636;-69
2023/01/17 03:35:07;;;;;;;;;15.33;10.67;;;;;;;;5097310;27;45568;-69
2023/01/17 03:37:32;;;;;;;;;19.00;11.33;;;;;;;;5097133;27;45526;-69
2023/01/17 03:39:57;;;;;;;;;15.33;10.00;;;;;;;;5090946;27;45379;-69
2023/01/17 03:42:22;;;;;;;;;11.00;10.00;;;;;;;;5089923;27;45406;-69
2023/01/17 03:44:47;;;;;;;;;16.00;13.33;;;;;;;;5095068;27;45590;-70
2023/01/17 03:47:13;;;;;;;;;11.67;10.33;;;;;;;;5097123;27;45552;-68
2023/01/17 03:49:38;;;;;;;;;14.00;11.00;;;;;;;;5098103;27;45564;-66
2023/01/17 03:52:04;;;;;;;;;18.67;15.33;;;;;;;;5099028;27;45391;-71
2023/01/17 03:54:29;;;;;;;;;22.33;14.67;;;;;;;;5098936;27;45447;-68
2023/01/17 03:56:54;;;;;;;;;13.00;11.00;;;;;;;;5096497;27;45213;-69
2023/01/17 03:59:20;;;;;;;;;12.67;8.33;;;;;;;;5098965;27;45265;-69
2023/01/17 04:01:45;;;;;;;;;16.67;12.33;;;;;;;;5097536;27;45427;-69
2023/01/17 04:04:10;;;;;;;;;12.33;10.00;;;;;;;;5097516;27;45531;-68
2023/01/17 04:06:35;;;;;;;;;22.00;16.00;;;;;;;;5098360;27;45513;-69
2023/01/17 04:09:00;;;;;;;;;10.67;10.00;;;;;;;;5098818;27;45387;-69
2023/01/17 04:11:26;;;;;;;;;16.33;12.67;;;;;;;;5098834;27;45460;-69
2023/01/17 04:13:51;;;;;;;;;12.00;12.00;;;;;;;;5097565;27;46532;-68
2023/01/17 04:16:17;;;;;;;;;14.00;11.00;;;;;;;;5098532;27;45375;-68
2023/01/17 04:18:43;;;;;;;;;15.00;13.67;;;;;;;;5098725;27;45381;-68
2023/01/17 04:21:08;;;;;;;;;15.33;11.00;;;;;;;;5098097;27;45377;-68
2023/01/17 04:23:33;;;;;;;;;10.67;10.67;;;;;;;;5098371;27;45485;-68
2023/01/17 04:25:59;;;;;;;;;11.00;11.00;;;;;;;;5097790;27;45400;-68
2023/01/17 04:28:24;;;;;;;;;13.33;11.67;;;;;;;;5098085;27;45422;-68
2023/01/17 04:30:49;;;;;;;;;17.33;11.00;;;;;;;;5097712;27;45386;-68
2023/01/17 04:33:14;;;;;;;;;13.33;10.67;;;;;;;;5098095;27;45516;-67
2023/01/17 04:35:40;;;;;;;;;13.00;9.67;;;;;;;;5098148;27;45405;-68
2023/01/17 04:38:05;;;;;;;;;12.00;11.33;;;;;;;;5097292;27;45798;-67
2023/01/17 04:40:30;;;;;;;;;15.33;14.33;;;;;;;;5097289;27;45525;-69
2023/01/17 04:42:56;;;;;;;;;19.00;18.67;;;;;;;;5090722;27;45528;-71
2023/01/17 04:45:21;;;;;;;;;17.33;10.67;;;;;;;;5077975;27;45248;-69
2023/01/17 04:47:47;;;;;;;;;13.00;13.00;;;;;;;;5079713;27;45336;-70
2023/01/17 04:50:12;;;;;;;;;31.33;27.00;;;;;;;;5094767;27;45280;-69
2023/01/17 04:52:37;;;;;;;;;17.67;13.67;;;;;;;;5097028;27;45590;-71
2023/01/17 04:55:03;;;;;;;;;14.33;14.00;;;;;;;;5082601;27;45419;-71
2023/01/17 04:57:28;;;;;;;;;17.33;14.67;;;;;;;;5095748;27;45662;-71
2023/01/17 04:59:53;;;;;;;;;15.00;13.33;;;;;;;;5097118;27;45495;-70
2023/01/17 05:02:19;;;;;;;;;11.33;5.67;;;;;;;;5096003;27;46353;-68
2023/01/17 05:04:44;;;;;;;;;18.33;13.00;;;;;;;;5090424;27;45502;-68
2023/01/17 05:07:09;;;;;;;;;13.67;9.33;;;;;;;;5077946;27;45315;-68
2023/01/17 05:09:34;;;;;;;;;15.33;10.67;;;;;;;;5088369;27;45383;-68
2023/01/17 05:11:59;;;;;;;;;13.00;10.00;;;;;;;;5097028;27;45435;-68
2023/01/17 05:14:25;;;;;;;;;16.33;14.00;;;;;;;;5097344;27;45405;-68
2023/01/17 05:16:57;;;;;;;;;13.67;13.00;;;;;;;;5097721;27;45403;-70
2023/01/17 05:19:22;;;;;;;;;21.67;16.33;;;;;;;;5097714;27;45292;-68
2023/01/17 05:21:48;;;;;;;;;21.00;14.00;;;;;;;;5096910;27;45575;-68
2023/01/17 05:24:13;;;;;;;;;13.00;10.67;;;;;;;;5097603;27;45316;-68
2023/01/17 05:26:39;;;;;;;;;19.33;14.33;;;;;;;;5097596;27;45441;-68
2023/01/17 05:29:04;;;;;;;;;22.67;18.00;;;;;;;;5097577;27;45550;-68
2023/01/17 05:31:30;;;;;;;;;21.00;15.33;;;;;;;;5096840;27;46071;-68
2023/01/17 05:33:55;;;;;;;;;17.67;14.00;;;;;;;;5100565;27;45287;-67
2023/01/17 05:36:20;;;;;;;;;27.00;18.00;;;;;;;;5101333;27;45481;-67
2023/01/17 05:38:45;;;;;;;;;19.33;17.00;;;;;;;;5100610;27;45500;-67
2023/01/17 05:41:10;;;;;;;;;25.67;18.00;;;;;;;;5100898;27;45432;-67
2023/01/17 05:43:36;;;;;;;;;21.67;18.00;;;;;;;;5098929;27;46030;-67
2023/01/17 05:46:01;;;;;;;;;23.67;19.00;;;;;;;;5101073;27;45523;-67
2023/01/17 05:48:26;;;;;;;;;24.00;19.33;;;;;;;;5100512;27;45722;-67
2023/01/17 05:50:51;;;;;;;;;23.33;15.33;;;;;;;;5100486;27;45639;-68
2023/01/17 05:53:16;;;;;;;;;38.00;32.00;;;;;;;;5100796;27;45432;-68
2023/01/17 05:55:42;;;;;;;;;31.33;22.00;;;;;;;;5092559;27;45509;-68
2023/01/17 05:58:11;;;;;;;;;23.67;17.67;;;;;;;;5086770;27;45365;-69
2023/01/17 06:00:36;;;;;;;;;30.67;21.67;;;;;;;;5089298;27;45485;-67
2023/01/17 06:03:01;;;;;;;;;31.67;23.33;;;;;;;;5099125;27;45599;-67
2023/01/17 06:05:27;;;;;;;;;29.67;20.67;;;;;;;;5100301;27;45409;-67
2023/01/17 06:07:53;;;;;;;;;25.67;19.00;;;;;;;;5096737;27;45558;-69
2023/01/17 06:10:19;;;;;;;;;22.00;17.00;;;;;;;;5087877;27;47364;-69
2023/01/17 06:12:45;;;;;;;;;28.33;19.67;;;;;;;;5100720;27;45385;-68
2023/01/17 06:15:11;;;;;;;;;22.33;18.00;;;;;;;;5080558;27;45473;-68
2023/01/17 06:17:36;;;;;;;;;21.33;17.33;;;;;;;;5080285;28;45524;-68
2023/01/17 06:20:02;;;;;;;;;42.00;36.67;;;;;;;;5079766;28;46596;-68
2023/01/17 06:22:28;;;;;;;;;35.67;31.67;;;;;;;;5079761;28;45393;-68
2023/01/17 06:24:53;;;;;;;;;22.67;22.00;;;;;;;;5080018;28;45372;-68
2023/01/17 06:27:18;;;;;;;;;36.67;25.00;;;;;;;;5080019;28;45299;-68
2023/01/17 06:29:43;;;;;;;;;20.33;18.67;;;;;;;;5095836;27;46135;-68
2023/01/17 06:32:09;;;;;;;;;28.67;25.00;;;;;;;;5098627;27;45318;-68
2023/01/17 06:34:36;;;;;;;;;24.67;21.67;;;;;;;;5100270;27;45344;-68
2023/01/17 06:37:01;;;;;;;;;25.67;20.00;;;;;;;;5100367;27;45394;-68
2023/01/17 06:39:26;;;;;;;;;25.33;21.33;;;;;;;;5099639;27;45521;-68
2023/01/17 06:41:52;;;;;;;;;26.67;21.00;;;;;;;;5087991;27;45321;-68
2023/01/17 06:44:17;;;;;;;;;27.67;23.00;;;;;;;;5080120;27;45386;-68
2023/01/17 06:46:43;;;;;;;;;44.00;34.00;;;;;;;;5094475;27;45229;-68
2023/01/17 06:49:08;;;;;;;;;35.67;29.33;;;;;;;;5087126;27;45487;-68
2023/01/17 06:51:34;;;;;;;;;27.67;22.67;;;;;;;;5098693;27;45461;-68
2023/01/17 06:53:59;;;;;;;;;17.67;17.33;;;;;;;;5084653;27;45541;-68
2023/01/17 06:56:24;;;;;;;;;20.67;17.33;;;;;;;;5088122;27;45578;-68
2023/01/17 06:58:50;;;;;;;;;26.67;26.00;;;;;;;;5084924;27;46464;-68
2023/01/17 07:01:15;;;;;;;;;21.00;21.00;;;;;;;;5098717;27;45595;-68
2023/01/17 07:03:41;;;;;;;;;34.33;26.33;;;;;;;;5099007;27;45418;-68
2023/01/17 07:06:08;;;;;;;;;43.33;35.33;;;;;;;;5096248;27;45540;-68
2023/01/17 07:08:34;;;;;;;;;57.00;46.67;;;;;;;;5099262;27;47376;-67
2023/01/17 07:11:00;;;;;;;;;57.67;42.67;;;;;;;;5097456;27;45432;-68
2023/01/17 07:13:25;;;;;;;;;43.33;37.00;;;;;;;;5086778;27;45457;-67
2023/01/17 07:15:51;;;;;;;;;36.00;30.00;;;;;;;;5094434;27;45412;-68
2023/01/17 07:18:22;;;;;;;;;44.00;35.67;;;;;;;;5099285;27;46070;-67
2023/01/17 07:20:47;;;;;;;;;36.67;30.00;;;;;;;;5092544;27;45410;-68
2023/01/17 07:23:12;;;;;;;;;37.67;31.33;;;;;;;;5097310;27;45783;-67
2023/01/17 07:25:38;;;;;;;;;40.00;33.33;;;;;;;;5094651;27;45552;-68
2023/01/17 07:28:03;;;;;;;;;32.00;30.00;;;;;;;;5081837;27;45594;-67
2023/01/17 07:30:29;;;;;;;;;36.00;28.67;;;;;;;;5078638;28;45376;-67
2023/01/17 07:32:55;;;;;;;;;39.00;30.67;;;;;;;;5078969;28;45295;-68
2023/01/17 07:35:20;;;;;;;;;41.00;31.67;;;;;;;;5090475;27;45629;-67
2023/01/17 07:37:46;;;;;;;;;50.00;39.33;;;;;;;;5083699;27;46620;-68
2023/01/17 07:40:11;;;;;;;;;47.67;37.00;;;;;;;;5087059;27;45210;-68
2023/01/17 07:42:36;;;;;;;;;32.67;29.67;;;;;;;;5095534;27;45411;-68
2023/01/17 07:45:02;;;;;;;;;37.67;33.67;;;;;;;;5093755;27;45456;-67
2023/01/17 07:47:27;;;;;;;;;34.33;33.33;;;;;;;;5078706;27;46161;-68
2023/01/17 07:49:53;;;;;;;;;33.00;26.33;;;;;;;;5078570;28;45459;-68
2023/01/17 07:52:18;;;;;;;;;36.67;32.33;;;;;;;;5078453;28;45253;-67
2023/01/17 07:54:44;;;;;;;;;32.00;29.67;;;;;;;;5077946;28;45200;-67
2023/01/17 07:57:12;;;;;;;;;29.67;26.67;;;;;;;;5078266;28;46301;-67
2023/01/17 07:59:37;;;;;;;;;40.33;33.67;;;;;;;;5078264;28;45599;-67
2023/01/17 08:02:02;;;;;;;;;36.67;32.00;;;;;;;;5078165;28;45726;-67
2023/01/17 08:04:33;;;;;;;;;49.67;39.33;;;;;;;;5078577;28;45338;-67
2023/01/17 08:06:59;;;;;;;;;40.67;32.00;;;;;;;;5078004;28;46256;-67
2023/01/17 08:09:24;;;;;;;;;32.67;30.33;;;;;;;;5078165;28;45518;-67
2023/01/17 08:11:49;;;;;;;;;33.00;26.67;;;;;;;;5078225;28;45377;-67
2023/01/17 08:14:15;;;;;;;;;33.33;32.67;;;;;;;;5078564;28;45413;-67
2023/01/17 08:16:40;;;;;;;;;42.67;34.00;;;;;;;;5077774;28;47402;-67
2023/01/17 08:19:05;;;;;;;;;47.00;39.00;;;;;;;;5077935;28;45292;-67
2023/01/17 08:21:31;;;;;;;;;35.33;35.33;;;;;;;;5078248;28;45431;-67
2023/01/17 08:23:56;;;;;;;;;29.00;26.33;;;;;;;;5078178;28;45417;-69
2023/01/17 08:26:21;;;;;;;;;48.00;36.33;;;;;;;;5077792;28;47316;-69
2023/01/17 08:28:58;;;;;;;;;56.00;45.67;;;;;;;;5077953;28;45363;-69
2023/01/17 08:31:24;;;;;;;;;28.67;23.67;;;;;;;;5077667;28;45406;-69
2023/01/17 08:33:49;;;;;;;;;37.00;29.33;;;;;;;;5078151;28;45379;-69
2023/01/17 08:36:14;;;;;;;;;43.33;31.00;;;;;;;;5077812;28;46304;-69
2023/01/17 08:38:39;;;;;;;;;39.00;27.33;;;;;;;;5077672;28;45339;-69
2023/01/17 08:41:05;;;;;;;;;36.00;27.33;;;;;;;;5077902;28;45389;-69
2023/01/17 08:43:30;;;;;;;;;34.67;27.33;;;;;;;;5077654;28;45438;-70
2023/01/17 08:45:55;;;;;;;;;41.67;38.00;;;;;;;;5085723;27;46770;-69
2023/01/17 08:48:21;;;;;;;;;46.33;40.33;;;;;;;;5098002;27;45311;-69
2023/01/17 08:50:46;;;;;;;;;38.33;25.33;;;;;;;;5098076;27;45352;-69
2023/01/17 08:53:12;;;;;;;;;37.67;32.33;;;;;;;;5098054;27;45344;-69
2023/01/17 08:55:39;;;;;;;;;34.00;29.67;;;;;;;;5097642;27;45520;-69
2023/01/17 08:58:04;;;;;;;;;44.33;33.33;;;;;;;;5097868;27;45170;-69
2023/01/17 09:00:31;;;;;;;;;33.67;30.67;;;;;;;;5097714;27;45234;-69
2023/01/17 09:02:56;;;;;;;;;49.67;42.33;;;;;;;;5079653;27;45513;-69
2023/01/17 09:05:21;;;;;;;;;60.33;49.67;;;;;;;;5097487;27;46290;-69
2023/01/17 09:07:47;;;;;;;;;55.33;41.33;;;;;;;;5097601;27;45614;-69
2023/01/17 09:10:12;;;;;;;;;41.00;34.00;;;;;;;;5097928;27;45486;-69
2023/01/17 09:12:39;;;;;;;;;43.00;36.67;;;;;;;;5097838;27;45422;-69
2023/01/17 09:15:04;;;;;;;;;28.33;24.33;;;;;;;;5097483;27;46237;-69
2023/01/17 09:17:29;;;;;;;;;44.33;37.33;;;;;;;;5096985;27;45405;-69
2023/01/17 09:19:55;;;;;;;;;39.67;33.00;;;;;;;;5097552;27;45486;-69
2023/01/17 09:22:20;;;;;;;;;45.33;40.00;;;;;;;;5097553;27;45438;-68
2023/01/17 09:24:45;;;;;;;;;34.33;28.33;;;;;;;;5097334;27;45458;-69
2023/01/17 09:27:10;;;;;;;;;59.67;45.00;;;;;;;;5097605;27;45714;-69
2023/01/17 09:29:35;;;;;;;;;61.33;44.00;;;;;;;;5097455;27;45385;-69
2023/01/17 09:32:01;;;;;;;;;46.00;34.00;;;;;;;;5097326;27;45454;-68
2023/01/17 09:34:26;;;;;;;;;34.00;32.00;;;;;;;;5097188;27;46578;-68
2023/01/17 09:36:51;;;;;;;;;48.33;39.33;;;;;;;;5097145;27;45260;-70
2023/01/17 09:39:16;;;;;;;;;43.33;37.67;;;;;;;;5097705;27;45163;-70
2023/01/17 09:41:51;;;;;;;;;45.67;38.33;;;;;;;;5097366;27;46033;-69
2023/01/17 09:44:22;;;;;;;;;46.33;38.67;;;;;;;;5096925;27;46726;-68
2023/01/17 09:46:48;;;;;;;;;45.67;33.67;;;;;;;;5097024;27;45379;-68
2023/01/17 09:49:23;;;;;;;;;47.33;36.00;;;;;;;;5096897;27;45469;-68
2023/01/17 09:51:48;;;;;;;;;44.00;35.67;;;;;;;;5097308;27;45473;-68
2023/01/17 09:54:26;;;;;;;;;36.33;31.67;;;;;;;;5096828;27;45591;-68
2023/01/17 09:56:59;;;;;;;;;32.33;27.33;;;;;;;;5097088;27;45303;-69
2023/01/17 09:59:33;;;;;;;;;39.67;36.67;;;;;;;;5096995;27;45454;-70
2023/01/17 10:02:13;;;;;;;;;26.00;26.00;;;;;;;;5096962;27;45793;-70
2023/01/17 10:04:50;;;;;;;;;36.00;29.00;;;;;;;;5096666;27;46214;-70
2023/01/17 10:07:15;;;;;;;;;31.33;30.33;;;;;;;;5096940;27;45189;-71
2023/01/17 10:09:40;;;;;;;;;37.00;33.00;;;;;;;;5096934;27;45284;-71
2023/01/17 10:12:08;;;;;;;;;33.67;28.33;;;;;;;;5097026;27;45459;-71
2023/01/17 10:14:42;;;;;;;;;29.33;29.00;;;;;;;;5096914;27;47614;-71
2023/01/17 10:17:16;;;;;;;;;52.00;42.33;;;;;;;;5096665;27;45341;-71
2023/01/17 10:20:00;;;;;;;;;28.00;25.00;;;;;;;;5099547;27;45329;-71
2023/01/17 10:22:25;;;;;;;;;24.33;21.67;;;;;;;;5100420;27;45241;-71
2023/01/17 10:24:50;;;;;;;;;31.00;21.33;;;;;;;;5100232;27;47348;-71
2023/01/17 10:27:23;;;;;;;;;29.33;22.00;;;;;;;;5100245;27;45185;-72
2023/01/17 10:29:49;;;;;;;;;23.33;19.67;;;;;;;;5100327;27;45322;-72
2023/01/17 10:32:14;;;;;;;;;24.67;22.33;;;;;;;;5100172;27;45237;-72
2023/01/17 10:35:03;;;;;;;;;46.00;34.33;;;;;;;;5099859;27;45421;-72
2023/01/17 10:37:42;;;;;;;;;24.00;21.67;;;;;;;;5036771;28;45353;-70
2023/01/17 10:40:21;;;;;;;;;19.67;17.00;;;;;;;;5036844;28;45437;-72
2023/01/17 10:43:05;;;;;;;;;21.00;17.00;;;;;;;;5036982;28;45547;-72
2023/01/17 10:45:38;;;;;;;;;10.00;7.33;;;;;;;;5036187;28;45488;-72
2023/01/17 10:48:04;;;;;;;;;16.33;12.33;;;;;;;;5036583;28;45370;-70
2023/01/17 10:50:41;;;;;;;;;9.33;9.00;;;;;;;;5036991;28;45302;-70
2023/01/17 10:53:14;;;;;;;;;11.33;7.00;;;;;;;;5037274;28;45525;-70
2023/01/17 10:55:47;;;;;;;;;26.33;22.00;;;;;;;;5036683;28;46733;-71
2023/01/17 10:58:13;;;;;;;;;18.00;14.67;;;;;;;;5036597;28;45410;-71
2023/01/17 11:00:42;;;;;;;;;9.00;8.00;;;;;;;;5036787;28;45457;-70
2023/01/17 11:03:09;;;;;;;;;12.33;10.00;;;;;;;;5036699;28;45436;-70
2023/01/17 11:05:34;;;;;;;;;7.67;7.33;;;;;;;;5036568;28;45421;-70
2023/01/17 11:08:01;;;;;;;;;10.33;10.33;;;;;;;;5035794;28;45579;-70
2023/01/17 11:10:34;;;;;;;;;14.33;9.67;;;;;;;;5036637;28;45368;-70
2023/01/17 11:12:59;;;;;;;;;13.00;9.67;;;;;;;;5036694;28;45466;-70
2023/01/17 11:15:25;;;;;;;;;13.67;10.00;;;;;;;;5092043;27;46238;-70
2023/01/17 11:17:59;;;;;;;;;12.67;9.00;;;;;;;;5099265;27;45401;-71
2023/01/17 11:20:41;;;;;;;;;11.00;9.33;;;;;;;;5099503;27;45389;-71
2023/01/17 11:23:19;;;;;;;;;11.33;9.33;;;;;;;;5099450;27;45411;-70
2023/01/17 11:25:51;;;;;;;;;16.67;10.00;;;;;;;;5099298;27;45414;-71
2023/01/17 11:28:22;;;;;;;;;18.33;15.00;;;;;;;;5099206;27;45275;-71
2023/01/17 11:30:55;;;;;;;;;11.67;9.67;;;;;;;;5097430;27;45407;-71
2023/01/17 11:33:32;;;;;;;;;13.00;12.67;;;;;;;;5099240;27;45396;-74
2023/01/17 11:35:58;;;;;;;;;13.00;8.33;;;;;;;;5099083;27;46114;-71
2023/01/17 11:38:23;;;;;;;;;7.33;7.00;;;;;;;;5099118;27;45221;-71
2023/01/17 11:40:48;;;;;;;;;16.67;16.67;;;;;;;;5099205;27;45363;-71
2023/01/17 11:43:20;;;;;;;;;7.00;4.00;;;;;;;;5099400;27;45218;-71
2023/01/17 11:45:46;;;;;;;;;9.67;8.00;;;;;;;;5098961;27;46705;-72
2023/01/17 11:48:13;;;;;;;;;7.67;6.00;;;;;;;;5098849;27;45535;-71
2023/01/17 11:50:40;;;;;;;;;11.25;7.50;;;;;;;;5098950;27;45434;-72
2023/01/17 11:53:05;;;;;;;;;12.00;9.00;;;;;;;;5099021;27;45485;-71
2023/01/17 11:55:30;;;;;;;;;13.67;10.33;;;;;;;;5098829;27;45608;-72
2023/01/17 11:57:55;;;;;;;;;15.67;9.33;;;;;;;;5098747;27;45411;-72
2023/01/17 12:00:23;;;;;;;;;7.67;6.00;;;;;;;;5099081;27;45696;-72
2023/01/17 12:03:01;;;;;;;;;12.00;7.50;;;;;;;;5098942;27;45402;-71
2023/01/17 12:05:45;;;;;;;;;8.50;6.75;;;;;;;;5098596;27;46107;-71
2023/01/17 12:08:13;;;;;;;;;7.25;6.50;;;;;;;;5098668;27;45412;-71
2023/01/17 12:10:49;;;;;;;;;8.50;6.00;;;;;;;;5098567;27;45627;-71
2023/01/17 12:16:31;;;;;;;;;8.00;7.00;;;;;;;;5098449;27;45484;-72
2023/01/17 12:19:11;;;;;;;;;5.33;5.33;;;;;;;;5098437;27;45444;-72
2023/01/17 12:22:03;;;;;;;;;4.00;4.00;;;;;;;;5098770;27;45382;-72
2023/01/17 12:24:47;;;;;;;;;5.50;5.50;;;;;;;;5095511;27;45350;-72
2023/01/17 12:27:21;;;;;;;;;5.25;3.00;;;;;;;;5098330;27;47057;-72
2023/01/17 12:30:14;;;;;;;;;6.25;3.00;;;;;;;;5098295;27;45576;-71
2023/01/17 12:33:01;;;;;;;;;3.00;3.00;;;;;;;;5098019;27;45420;-72
2023/01/17 12:35:30;;;;;;;;;3.75;3.75;;;;;;;;5098486;27;45604;-71
2023/01/17 12:38:01;;;;;;;;;9.00;4.00;;;;;;;;5098047;27;45437;-71
2023/01/17 12:40:29;;;;;;;;;7.00;7.00;;;;;;;;5098224;27;45450;-71
2023/01/17 12:42:58;;;;;;;;;11.33;7.00;;;;;;;;5097750;27;45484;-72
2023/01/17 12:45:30;;;;;;;;;6.67;6.00;;;;;;;;5098446;27;45415;-72
2023/01/17 12:48:09;;;;;;;;;10.00;6.00;;;;;;;;5079558;27;46574;-71
2023/01/17 12:50:39;;;;;;;;;3.00;3.00;;;;;;;;5097984;27;45417;-72
2023/01/17 12:53:04;;;;;;;;;4.50;3.50;;;;;;;;5097990;27;45396;-72
2023/01/17 12:55:52;;;;;;;;;3.25;2.75;;;;;;;;5098089;27;45442;-72
2023/01/17 12:58:21;;;;;;;;;3.50;3.00;;;;;;;;5097667;27;46411;-72
2023/01/17 13:00:50;;;;;;;;;7.25;6.00;;;;;;;;5097986;27;45576;-72
2023/01/17 13:03:19;;;;;;;;;13.00;7.00;;;;;;;;5097714;27;45389;-71
2023/01/17 13:05:45;;;;;;;;;2.00;2.00;;;;;;;;5098055;27;45385;-71
2023/01/17 13:08:20;;;;;;;;;3.75;3.25;;;;;;;;5097604;27;46445;-71
2023/01/17 13:11:08;;;;;;;;;7.25;3.25;;;;;;;;5097609;27;45505;-71
2023/01/17 13:13:34;;;;;;;;;0.75;0.00;;;;;;;;5034659;28;45480;-71
2023/01/17 13:16:00;;;;;;;;;4.00;2.00;;;;;;;;5034894;28;45436;-71
2023/01/17 13:18:28;;;;;;;;;5.33;2.00;;;;;;;;5034412;28;45614;-71
2023/01/17 13:20:56;;;;;;;;;0.75;0.75;;;;;;;;5034700;28;45386;-71
2023/01/17 13:23:27;;;;;;;;;3.00;1.75;;;;;;;;5034577;28;45439;-71
2023/01/17 13:25:53;;;;;;;;;2.50;2.50;;;;;;;;5034623;28;45358;-71
2023/01/17 13:28:34;;;;;;;;;7.50;3.25;;;;;;;;5034325;28;46607;-71
2023/01/17 13:31:22;;;;;;;;;7.00;2.50;;;;;;;;5034257;28;45511;-71
2023/01/17 13:34:05;;;;;;;;;7.25;4.00;;;;;;;;5034514;28;45480;-72
2023/01/17 13:36:39;;;;;;;;;3.00;3.00;;;;;;;;5034770;28;45506;-72
2023/01/17 13:39:23;;;;;;;;;3.25;2.00;;;;;;;;5034388;28;46116;-71
2023/01/17 13:42:06;;;;;;;;;4.00;2.00;;;;;;;;5034262;28;45491;-71
2023/01/17 13:44:32;;;;;;;;;3.00;1.25;;;;;;;;5034465;28;45411;-71
2023/01/17 13:47:03;;;;;;;;;3.25;2.00;;;;;;;;5034496;28;45381;-72
2023/01/17 13:49:28;;;;;;;;;2.00;2.00;;;;;;;;5036648;27;46381;-71
2023/01/17 13:52:11;;;;;;;;;2.00;2.00;;;;;;;;5097261;27;45172;-71
2023/01/17 13:54:44;;;;;;;;;4.00;2.25;;;;;;;;5100133;27;45484;-71
2023/01/17 13:57:21;;;;;;;;;2.25;1.25;;;;;;;;5100951;27;45405;-71
2023/01/17 13:59:47;;;;;;;;;3.00;1.00;;;;;;;;5100641;27;46581;-72
2023/01/17 14:02:30;;;;;;;;;1.00;1.00;;;;;;;;5100632;27;45369;-72
2023/01/17 14:05:09;;;;;;;;;1.00;1.00;;;;;;;;5100629;27;45397;-72
2023/01/17 14:07:38;;;;;;;;;3.00;1.00;;;;;;;;5100911;27;45385;-73
2023/01/17 14:10:23;;;;;;;;;1.00;1.00;;;;;;;;5100515;27;46270;-73
2023/01/17 14:12:48;;;;;;;;;3.25;1.00;;;;;;;;5100481;27;45428;-72
2023/01/17 14:15:25;;;;;;;;;6.50;4.00;;;;;;;;5100609;27;45425;-72
2023/01/17 14:17:56;;;;;;;;;5.50;2.75;;;;;;;;5100637;27;45531;-72
2023/01/17 14:20:24;;;;;;;;;3.50;3.50;;;;;;;;5100346;27;45493;-72
2023/01/17 14:22:49;;;;;;;;;6.00;6.00;;;;;;;;5100291;27;45479;-71
2023/01/17 14:25:16;;;;;;;;;7.75;3.00;;;;;;;;5100325;27;45303;-71
2023/01/17 14:27:41;;;;;;;;;6.00;3.00;;;;;;;;5100793;27;45509;-71
2023/01/17 14:30:16;;;;;;;;;3.25;3.00;;;;;;;;5100078;27;46434;-72
2023/01/17 14:33:00;;;;;;;;;9.00;4.00;;;;;;;;5100060;27;45480;-72
2023/01/17 14:35:26;;;;;;;;;3.75;2.25;;;;;;;;5100001;27;45485;-72
2023/01/17 14:37:52;;;;;;;;;2.33;1.00;;;;;;;;5100520;27;45495;-72
2023/01/17 14:40:24;;;;;;;;;3.50;3.00;;;;;;;;5099940;27;46755;-72
2023/01/17 14:42:58;;;;;;;;;4.75;3.00;;;;;;;;5100226;27;45366;-72
2023/01/17 14:45:25;;;;;;;;;6.00;4.00;;;;;;;;5100194;27;45349;-71
2023/01/17 14:47:51;;;;;;;;;21.67;17.67;;;;;;;;5100078;27;45451;-71
2023/01/17 14:50:16;;;;;;;;;7.67;7.00;;;;;;;;5099715;27;46777;-72
2023/01/17 14:52:43;;;;;;;;;6.00;3.75;;;;;;;;5099866;27;45559;-72
2023/01/17 14:55:16;;;;;;;;;7.67;6.67;;;;;;;;5099994;27;45382;-72
2023/01/17 14:57:41;;;;;;;;;4.50;3.00;;;;;;;;5100218;27;45388;-71
2023/01/17 15:00:20;;;;;;;;;3.50;1.75;;;;;;;;5099605;27;45499;-71
2023/01/17 15:02:47;;;;;;;;;3.00;3.00;;;;;;;;5099518;27;45389;-71
2023/01/17 15:05:13;;;;;;;;;10.67;8.00;;;;;;;;5099702;27;45393;-70
2023/01/17 15:07:39;;;;;;;;;8.00;7.00;;;;;;;;5099822;27;45364;-71
2023/01/17 15:10:04;;;;;;;;;7.00;7.00;;;;;;;;5099475;27;46303;-71
2023/01/17 15:12:30;;;;;;;;;8.00;7.00;;;;;;;;5099600;27;45343;-70
2023/01/17 15:14:57;;;;;;;;;9.00;8.00;;;;;;;;5099719;27;45504;-70
2023/01/17 15:17:26;;;;;;;;;2.67;1.00;;;;;;;;5099954;27;45336;-71
2023/01/17 15:19:56;;;;;;;;;6.33;5.67;;;;;;;;5099267;27;45389;-70
2023/01/17 15:22:22;;;;;;;;;7.25;4.00;;;;;;;;5099295;27;45360;-70
2023/01/17 15:24:48;;;;;;;;;31.00;30.67;;;;;;;;5099452;27;45400;-70
2023/01/17 15:27:16;;;;;;;;;42.00;36.33;;;;;;;;5099394;27;45488;-71
2023/01/17 15:29:45;;;;;;;;;14.00;14.00;;;;;;;;5099142;27;45818;-70
2023/01/17 15:32:17;;;;;;;;;59.67;46.00;;;;;;;;5099005;27;45316;-70
2023/01/17 15:34:43;;;;;;;;;18.00;17.00;;;;;;;;5099052;27;45340;-70
2023/01/17 15:37:35;;;;;;;;;11.67;7.00;;;;;;;;5099228;27;45469;-70
2023/01/17 15:40:20;;;;;;;;;8.33;6.33;;;;;;;;5095713;27;45421;-70
2023/01/17 15:42:57;;;;;;;;;18.67;18.67;;;;;;;;5098316;27;45244;-70
2023/01/17 15:45:25;;;;;;;;;12.33;10.67;;;;;;;;5099270;27;45352;-70
2023/01/17 15:47:51;;;;;;;;;6.67;6.67;;;;;;;;5099277;27;45357;-70
2023/01/17 15:50:19;;;;;;;;;13.00;8.00;;;;;;;;5098589;27;46123;-70
2023/01/17 15:52:51;;;;;;;;;7.67;7.67;;;;;;;;5098897;27;45235;-70